createdAt,value
2023-04-13T00:01:11.289Z,93.20
2023-04-13T00:03:39.137Z,93.20
2023-04-13T00:06:10.615Z,93.10
2023-04-13T00:08:37.647Z,93.10
2023-04-13T00:11:06.660Z,93.10
2023-04-13T00:13:40.798Z,93.10
2023-04-13T00:16:10.216Z,93.10
2023-04-13T00:18:37.332Z,93.00
2023-04-13T00:21:04.564Z,93.00
2023-04-13T00:23:34.384Z,93.10
2023-04-13T00:26:01.534Z,93.10
2023-04-13T00:28:29.929Z,93.10
2023-04-13T00:30:59.408Z,93.10
2023-04-13T00:33:26.628Z,93.00
2023-04-13T00:35:53.539Z,93.00
2023-04-13T00:38:20.402Z,93.00
2023-04-13T00:40:47.431Z,92.90
2023-04-13T00:43:14.947Z,93.00
2023-04-13T00:45:43.382Z,93.00
2023-04-13T00:48:13.480Z,93.00
2023-04-13T00:50:42.549Z,92.90
2023-04-13T00:53:13.656Z,92.90
2023-04-13T00:55:42.828Z,92.90
2023-04-13T00:58:10.610Z,92.90
2023-04-13T01:00:39.143Z,93.00
2023-04-13T01:03:06.837Z,93.00
2023-04-13T01:05:43.716Z,93.20
2023-04-13T01:08:58.074Z,93.20
2023-04-13T01:11:39.460Z,93.30
2023-04-13T01:14:15.330Z,93.10
2023-04-13T01:16:56.715Z,93.20
2023-04-13T01:19:56.858Z,93.30
2023-04-13T01:22:29.899Z,93.30
2023-04-13T01:25:22.543Z,93.00
2023-04-13T01:28:05.387Z,93.10
2023-04-13T01:30:36.087Z,93.10
2023-04-13T01:33:05.804Z,93.10
2023-04-13T01:35:35.074Z,93.20
2023-04-13T01:38:03.215Z,93.10
2023-04-13T01:40:33.132Z,93.10
2023-04-13T01:43:00.182Z,93.10
2023-04-13T01:45:47.696Z,93.10
2023-04-13T01:48:29.910Z,93.20
2023-04-13T01:51:25.376Z,93.30
2023-04-13T01:54:20.531Z,93.30
2023-04-13T01:56:48.877Z,93.30
2023-04-13T01:59:16.812Z,93.00
2023-04-13T02:01:44.680Z,93.10
2023-04-13T02:04:12.489Z,93.10
2023-04-13T02:06:42.405Z,93.10
2023-04-13T02:09:10.996Z,93.10
2023-04-13T02:11:38.532Z,93.20
2023-04-13T02:14:07.855Z,93.10
2023-04-13T02:16:35.272Z,93.00
2023-04-13T02:19:02.483Z,93.10
2023-04-13T02:21:30.544Z,93.10
2023-04-13T02:23:57.883Z,93.00
2023-04-13T02:26:26.293Z,93.00
2023-04-13T02:28:53.540Z,93.10
2023-04-13T02:31:23.305Z,93.00
2023-04-13T02:33:51.553Z,93.10
2023-04-13T02:36:19.295Z,93.00
2023-04-13T02:38:54.578Z,93.00
2023-04-13T02:41:29.629Z,92.90
2023-04-13T02:43:57.505Z,93.00
2023-04-13T02:46:28.398Z,93.00
2023-04-13T02:49:03.555Z,93.10
2023-04-13T02:51:36.308Z,93.10
2023-04-13T02:54:04.110Z,93.10
2023-04-13T02:56:36.137Z,93.10
2023-04-13T02:59:03.843Z,93.10
2023-04-13T03:01:31.480Z,93.00
2023-04-13T03:03:58.777Z,93.10
2023-04-13T03:06:28.185Z,93.00
2023-04-13T03:08:59.625Z,93.00
2023-04-13T03:11:28.089Z,92.90
2023-04-13T03:14:29.940Z,92.80
2023-04-13T03:17:08.450Z,92.90
2023-04-13T03:19:40.493Z,92.80
2023-04-13T03:22:08.280Z,92.80
2023-04-13T03:24:40.118Z,92.90
2023-04-13T03:27:08.767Z,92.80
2023-04-13T03:29:42.673Z,92.90
2023-04-13T03:32:14.024Z,93.00
2023-04-13T03:34:45.165Z,93.10
2023-04-13T03:37:14.042Z,93.20
2023-04-13T03:39:41.384Z,93.20
2023-04-13T03:42:12.049Z,93.20
2023-04-13T03:44:44.972Z,93.30
2023-04-13T03:47:12.795Z,93.30
2023-04-13T03:49:40.084Z,93.40
2023-04-13T03:52:07.003Z,93.40
2023-04-13T03:54:40.100Z,93.50
2023-04-13T03:57:07.474Z,93.50
2023-04-13T03:59:35.234Z,93.50
2023-04-13T04:02:04.029Z,93.50
2023-04-13T04:04:33.725Z,93.50
2023-04-13T04:07:00.866Z,93.50
2023-04-13T04:09:28.021Z,93.50
2023-04-13T04:11:56.610Z,93.50
2023-04-13T04:14:35.946Z,93.50
2023-04-13T04:17:11.405Z,93.40
2023-04-13T04:19:38.685Z,93.40
2023-04-13T04:22:09.158Z,93.30
2023-04-13T04:24:39.943Z,93.30
2023-04-13T04:27:07.623Z,93.30
2023-04-13T04:29:34.784Z,93.20
2023-04-13T04:32:19.998Z,93.30
2023-04-13T04:34:48.126Z,93.30
2023-04-13T04:37:21.384Z,93.40
2023-04-13T04:40:00.913Z,93.40
2023-04-13T04:42:28.027Z,93.40
2023-04-13T04:44:57.248Z,93.40
2023-04-13T04:47:30.635Z,93.50
2023-04-13T04:50:12.884Z,93.50
2023-04-13T04:52:42.343Z,93.50
2023-04-13T04:55:12.092Z,93.50
2023-04-13T04:57:41.301Z,93.50
2023-04-13T05:00:18.248Z,93.50
2023-04-13T05:03:07.468Z,93.50
2023-04-13T05:05:37.478Z,93.60
2023-04-13T05:08:09.273Z,93.60
2023-04-13T05:10:46.318Z,93.60
2023-04-13T05:13:13.430Z,93.70
2023-04-13T05:15:43.922Z,93.70
2023-04-13T05:18:13.031Z,93.70
2023-04-13T05:20:40.089Z,93.80
2023-04-13T05:23:09.696Z,93.80
2023-04-13T05:25:43.207Z,93.80
2023-04-13T05:28:17.751Z,93.80
2023-04-13T05:30:45.804Z,93.90
2023-04-13T05:33:12.795Z,93.90
2023-04-13T05:35:41.154Z,93.90
2023-04-13T05:38:09.360Z,94.00
2023-04-13T05:40:36.741Z,94.00
2023-04-13T05:43:05.187Z,94.10
2023-04-13T05:45:36.494Z,94.10
2023-04-13T05:48:07.719Z,94.10
2023-04-13T05:50:35.171Z,94.20
2023-04-13T05:53:02.901Z,94.20
2023-04-13T05:55:43.058Z,94.60
2023-04-13T05:58:11.054Z,94.50
2023-04-13T06:00:38.799Z,94.20
2023-04-13T06:03:11.328Z,94.20
2023-04-13T06:05:38.879Z,94.20
2023-04-13T06:08:05.902Z,94.30
2023-04-13T06:10:32.912Z,94.30
2023-04-13T06:13:00.103Z,94.20
2023-04-13T06:15:27.346Z,94.30
2023-04-13T06:17:54.657Z,94.30
2023-04-13T06:20:21.848Z,94.40
2023-04-13T06:22:49.925Z,94.50
2023-04-13T06:25:19.949Z,94.40
2023-04-13T06:27:49.740Z,94.50
2023-04-13T06:30:18.188Z,94.40
2023-04-13T06:32:47.181Z,94.30
2023-04-13T06:35:17.347Z,94.30
2023-04-13T06:37:47.286Z,94.20
2023-04-13T06:40:21.039Z,94.20
2023-04-13T06:42:57.784Z,94.10
2023-04-13T06:45:33.904Z,94.10
2023-04-13T06:48:07.056Z,94.00
2023-04-13T06:50:35.746Z,94.00
2023-04-13T06:53:04.391Z,93.90
2023-04-13T06:55:31.639Z,94.00
2023-04-13T06:57:59.141Z,93.90
2023-04-13T07:00:30.127Z,93.90
2023-04-13T07:03:00.249Z,93.80
2023-04-13T07:05:28.187Z,93.80
2023-04-13T07:08:00.599Z,93.70
2023-04-13T07:10:29.003Z,93.70
2023-04-13T07:12:59.175Z,93.70
2023-04-13T07:15:28.850Z,93.60
2023-04-13T07:17:55.971Z,93.60
2023-04-13T07:20:23.125Z,93.30
2023-04-13T07:22:51.375Z,93.00
2023-04-13T07:25:18.501Z,92.90
2023-04-13T07:27:46.164Z,92.80
2023-04-13T07:30:14.284Z,92.70
2023-04-13T07:32:45.260Z,92.60
2023-04-13T07:35:13.125Z,92.50
2023-04-13T07:37:42.479Z,92.30
2023-04-13T07:40:11.827Z,92.40
2023-04-13T07:42:40.796Z,92.40
2023-04-13T07:45:10.878Z,92.30
2023-04-13T07:47:38.489Z,92.10
2023-04-13T07:50:09.385Z,92.10
2023-04-13T07:52:37.468Z,91.90
2023-04-13T07:55:07.996Z,91.80
2023-04-13T07:57:39.808Z,91.50
2023-04-13T08:00:08.384Z,91.10
2023-04-13T08:02:44.273Z,91.00
2023-04-13T08:05:15.678Z,90.40
2023-04-13T08:07:46.459Z,90.20
2023-04-13T08:10:15.396Z,89.90
2023-04-13T08:12:43.098Z,89.20
2023-04-13T08:15:10.934Z,88.40
2023-04-13T08:17:38.291Z,87.90
2023-04-13T08:20:08.201Z,86.90
2023-04-13T08:22:36.727Z,86.10
2023-04-13T08:25:07.409Z,85.60
2023-04-13T08:27:35.371Z,85.10
2023-04-13T08:30:05.219Z,84.40
2023-04-13T08:32:42.350Z,83.50
2023-04-13T08:37:54.225Z,80.10
2023-04-13T08:40:22.776Z,78.60
2023-04-13T08:42:54.535Z,77.80
2023-04-13T08:45:22.337Z,76.20
2023-04-13T08:47:50.224Z,74.90
2023-04-13T08:50:21.175Z,74.40
2023-04-13T08:52:51.328Z,74.00
2023-04-13T08:55:18.482Z,73.40
2023-04-13T08:57:51.396Z,72.40
2023-04-13T09:00:21.727Z,71.60
2023-04-13T09:03:03.079Z,71.20
2023-04-13T09:05:38.851Z,71.00
2023-04-13T09:08:08.253Z,70.80
2023-04-13T09:10:38.208Z,70.20
2023-04-13T09:13:05.908Z,70.00
2023-04-13T09:15:33.258Z,70.00
2023-04-13T09:18:21.125Z,69.40
2023-04-13T09:21:00.439Z,69.10
2023-04-13T09:23:28.092Z,65.60
2023-04-13T09:26:08.844Z,64.90
2023-04-13T09:28:47.974Z,62.60
2023-04-13T09:31:15.695Z,59.90
2023-04-13T09:33:52.455Z,58.80
2023-04-13T09:36:21.655Z,57.90
2023-04-13T09:38:58.773Z,58.40
2023-04-13T09:41:40.367Z,57.30
2023-04-13T09:44:20.611Z,57.50
2023-04-13T09:47:02.516Z,57.80
2023-04-13T09:49:41.881Z,58.20
2023-04-13T09:52:23.471Z,58.90
2023-04-13T09:54:57.170Z,58.90
2023-04-13T09:57:33.458Z,58.10
2023-04-13T10:00:01.617Z,57.50
2023-04-13T10:02:39.942Z,58.10
2023-04-13T10:05:10.165Z,57.60
2023-04-13T10:07:38.043Z,57.00
2023-04-13T10:10:05.690Z,56.30
2023-04-13T10:12:35.843Z,55.70
2023-04-13T10:15:22.815Z,54.50
2023-04-13T10:18:06.462Z,53.40
2023-04-13T10:20:34.513Z,54.30
2023-04-13T10:23:04.142Z,53.10
2023-04-13T10:25:33.508Z,52.90
2023-04-13T10:28:02.062Z,52.40
2023-04-13T10:30:29.931Z,52.20
2023-04-13T10:33:05.707Z,52.20
2023-04-13T10:35:37.439Z,51.60
2023-04-13T10:38:05.273Z,51.40
2023-04-13T10:40:48.901Z,50.60
2023-04-13T10:43:45.499Z,50.10
2023-04-13T10:46:13.874Z,49.50
2023-04-13T10:48:41.957Z,49.20
2023-04-13T10:51:09.363Z,48.70
2023-04-13T10:53:36.857Z,48.90
2023-04-13T10:56:05.091Z,48.90
2023-04-13T10:58:33.166Z,49.50
2023-04-13T11:01:01.005Z,50.50
2023-04-13T11:03:29.280Z,50.60
2023-04-13T11:05:59.898Z,50.20
2023-04-13T11:08:27.954Z,48.90
2023-04-13T11:10:57.244Z,48.20
2023-04-13T11:13:31.087Z,47.70
2023-04-13T11:16:05.634Z,48.10
2023-04-13T11:18:33.276Z,48.00
2023-04-13T11:21:06.059Z,47.40
2023-04-13T11:23:36.345Z,47.30
2023-04-13T11:26:05.615Z,47.40
2023-04-13T11:28:42.573Z,47.70
2023-04-13T11:31:12.731Z,48.00
2023-04-13T11:33:40.909Z,48.10
2023-04-13T11:36:12.218Z,47.90
2023-04-13T11:38:42.317Z,48.00
2023-04-13T11:43:42.024Z,47.50
2023-04-13T11:46:13.922Z,47.40
2023-04-13T11:48:42.509Z,47.50
2023-04-13T11:51:11.811Z,47.90
2023-04-13T11:53:40.650Z,47.70
2023-04-13T11:56:08.600Z,47.70
2023-04-13T11:58:38.436Z,47.90
2023-04-13T12:03:55.663Z,48.00
2023-04-13T12:06:29.320Z,48.40
2023-04-13T12:09:10.963Z,48.30
2023-04-13T12:11:46.672Z,48.00
2023-04-13T12:19:27.200Z,47.60
2023-04-13T12:21:57.352Z,47.90
2023-04-13T12:24:40.313Z,48.00
2023-04-13T12:29:39.274Z,47.80
2023-04-13T12:32:14.846Z,47.40
2023-04-13T12:34:43.522Z,46.90
2023-04-13T12:37:12.036Z,46.80
2023-04-13T12:39:39.350Z,46.50
2023-04-13T12:42:06.736Z,46.40
2023-04-13T12:44:34.521Z,46.40
2023-04-13T12:47:24.375Z,46.20
2023-04-13T12:49:51.682Z,46.20
2023-04-13T12:52:18.648Z,46.90
2023-04-13T12:54:45.955Z,47.40
2023-04-13T12:57:17.150Z,47.60
2023-04-13T12:59:44.840Z,47.40
2023-04-13T13:02:12.014Z,46.90
2023-04-13T13:04:39.039Z,46.20
2023-04-13T13:07:06.411Z,44.90
2023-04-13T13:09:34.054Z,44.80
2023-04-13T13:12:02.608Z,42.80
2023-04-13T13:14:31.007Z,42.60
2023-04-13T13:16:58.433Z,42.10
2023-04-13T13:19:25.443Z,40.70
2023-04-13T13:21:52.680Z,38.90
2023-04-13T13:24:20.035Z,37.60
2023-04-13T13:29:24.029Z,37.30
2023-04-13T13:31:51.319Z,37.30
2023-04-13T13:34:18.784Z,37.00
2023-04-13T13:36:46.686Z,37.00
2023-04-13T13:39:13.702Z,37.10
2023-04-13T13:41:40.910Z,37.00
2023-04-13T13:44:08.345Z,37.20
2023-04-13T13:46:36.818Z,37.20
2023-04-13T13:49:06.737Z,36.90
2023-04-13T13:51:54.145Z,36.80
2023-04-13T13:54:24.099Z,37.30
2023-04-13T13:56:51.665Z,37.40
2023-04-13T13:59:19.117Z,37.70
2023-04-13T14:01:46.215Z,37.30
2023-04-13T14:04:14.050Z,36.50
2023-04-13T14:06:41.435Z,35.80
2023-04-13T14:09:08.819Z,35.90
2023-04-13T14:11:36.245Z,36.60
2023-04-13T14:14:18.147Z,37.20
2023-04-13T14:16:48.969Z,37.40
2023-04-13T14:19:18.148Z,37.10
2023-04-13T14:21:45.241Z,35.50
2023-04-13T14:24:12.613Z,34.70
2023-04-13T14:26:39.817Z,33.90
2023-04-13T14:29:09.066Z,33.80
2023-04-13T14:31:36.233Z,33.50
2023-04-13T14:34:03.839Z,33.70
2023-04-13T14:36:31.060Z,32.70
2023-04-13T14:39:00.300Z,31.50
2023-04-13T14:41:27.673Z,31.00
2023-04-13T14:43:54.609Z,30.50
2023-04-13T14:46:21.799Z,30.00
2023-04-13T14:48:48.851Z,29.70
2023-04-13T14:51:17.257Z,29.20
2023-04-13T14:53:44.657Z,29.20
2023-04-13T14:56:12.066Z,29.30
2023-04-13T14:58:39.280Z,29.30
2023-04-13T15:01:17.615Z,29.00
2023-04-13T15:03:46.313Z,29.00
2023-04-13T15:06:14.103Z,29.30
2023-04-13T15:08:41.068Z,29.70
2023-04-13T15:11:08.975Z,30.00
2023-04-13T15:13:38.258Z,30.30
2023-04-13T15:16:08.027Z,30.20
2023-04-13T15:18:35.335Z,30.10
2023-04-13T15:21:04.323Z,30.00
2023-04-13T15:23:32.545Z,30.10
2023-04-13T15:26:01.161Z,30.30
2023-04-13T15:28:28.426Z,30.40
2023-04-13T15:30:55.507Z,30.20
2023-04-13T15:33:22.936Z,30.70
2023-04-13T15:35:52.194Z,30.80
2023-04-13T15:38:19.241Z,31.00
2023-04-13T15:40:47.044Z,30.80
2023-04-13T15:43:14.055Z,30.90
2023-04-13T15:45:41.361Z,30.60
2023-04-13T15:48:08.405Z,30.80
2023-04-13T15:50:35.831Z,30.90
2023-04-13T15:53:03.007Z,31.40
2023-04-13T15:55:30.295Z,31.80
2023-04-13T15:57:57.370Z,32.40
2023-04-13T16:00:26.429Z,33.10
2023-04-13T16:02:53.876Z,33.50
2023-04-13T16:05:21.231Z,33.80
2023-04-13T16:07:48.862Z,33.90
2023-04-13T16:10:17.197Z,34.00
2023-04-13T16:12:45.533Z,34.00
2023-04-13T16:15:13.120Z,34.10
2023-04-13T16:17:43.990Z,34.20
2023-04-13T16:20:14.219Z,34.30
2023-04-13T16:22:43.154Z,34.50
2023-04-13T16:25:11.311Z,34.70
2023-04-13T16:27:39.835Z,35.00
2023-04-13T16:30:08.382Z,35.30
2023-04-13T16:32:35.766Z,35.50
2023-04-13T16:35:02.836Z,35.80
2023-04-13T16:37:29.714Z,36.00
2023-04-13T16:39:56.920Z,36.40
2023-04-13T16:42:24.002Z,36.90
2023-04-13T16:44:51.434Z,37.20
2023-04-13T16:47:21.179Z,37.60
2023-04-13T16:49:48.308Z,38.00
2023-04-13T16:52:15.368Z,38.40
2023-04-13T16:54:46.272Z,38.80
2023-04-13T16:57:13.655Z,39.10
2023-04-13T16:59:40.736Z,39.50
2023-04-13T17:02:15.311Z,40.00
2023-04-13T17:04:51.634Z,40.30
2023-04-13T17:07:18.538Z,40.50
2023-04-13T17:09:45.634Z,40.80
2023-04-13T17:12:12.627Z,41.30
2023-04-13T17:14:40.165Z,41.50
2023-04-13T17:17:07.150Z,41.80
2023-04-13T17:19:34.130Z,41.80
2023-04-13T17:22:01.231Z,42.00
2023-04-13T17:24:28.280Z,42.20
2023-04-13T17:26:55.245Z,42.40
2023-04-13T17:29:22.185Z,42.60
2023-04-13T17:31:49.303Z,42.70
2023-04-13T17:34:16.272Z,42.90
2023-04-13T17:36:43.315Z,43.70
2023-04-13T17:39:10.445Z,43.20
2023-04-13T17:41:37.705Z,43.80
2023-04-13T17:44:04.887Z,43.40
2023-04-13T17:46:32.116Z,43.60
2023-04-13T17:48:59.528Z,43.90
2023-04-13T17:51:26.817Z,44.00
2023-04-13T17:53:53.909Z,44.40
2023-04-13T17:56:21.180Z,44.50
2023-04-13T17:58:48.235Z,44.70
2023-04-13T18:01:15.409Z,45.00
2023-04-13T18:03:42.880Z,45.30
2023-04-13T18:06:10.520Z,45.40
2023-04-13T18:08:37.605Z,45.60
2023-04-13T18:11:04.675Z,45.90
2023-04-13T18:13:31.798Z,46.20
2023-04-13T18:15:58.825Z,46.60
2023-04-13T18:18:26.654Z,46.90
2023-04-13T18:20:53.685Z,47.30
2023-04-13T18:23:21.690Z,47.50
2023-04-13T18:25:52.367Z,47.80
2023-04-13T18:28:19.466Z,48.20
2023-04-13T18:30:46.520Z,48.30
2023-04-13T18:33:13.598Z,48.70
2023-04-13T18:35:46.180Z,48.90
2023-04-13T18:38:13.462Z,49.40
2023-04-13T18:40:40.768Z,49.50
2023-04-13T18:43:07.809Z,49.80
2023-04-13T18:45:35.056Z,50.10
2023-04-13T18:48:02.566Z,50.40
2023-04-13T18:50:29.484Z,50.70
2023-04-13T18:52:56.603Z,51.10
2023-04-13T18:55:25.941Z,51.30
2023-04-13T18:57:53.014Z,51.70
2023-04-13T19:00:20.393Z,52.10
2023-04-13T19:02:54.210Z,52.50
2023-04-13T19:05:21.405Z,53.00
2023-04-13T19:08:03.654Z,53.00
2023-04-13T19:10:31.527Z,53.50
2023-04-13T19:12:58.570Z,53.30
2023-04-13T19:15:26.033Z,53.60
2023-04-13T19:17:53.254Z,54.10
2023-04-13T19:20:23.577Z,54.30
2023-04-13T19:22:51.640Z,54.50
2023-04-13T19:25:18.636Z,54.70
2023-04-13T19:27:46.790Z,55.10
2023-04-13T19:30:16.108Z,55.40
2023-04-13T19:32:46.713Z,55.60
2023-04-13T19:35:14.317Z,55.80
2023-04-13T19:37:41.735Z,55.80
2023-04-13T19:40:10.288Z,56.00
2023-04-13T19:42:37.638Z,56.20
2023-04-13T19:45:05.244Z,56.20
2023-04-13T19:47:32.225Z,56.40
2023-04-13T19:50:00.371Z,56.50
2023-04-13T19:52:27.727Z,56.50
2023-04-13T19:54:55.096Z,56.60
2023-04-13T19:57:22.859Z,56.80
2023-04-13T19:59:49.873Z,56.90
2023-04-13T20:02:16.945Z,57.10
2023-04-13T20:04:45.701Z,57.50
2023-04-13T20:07:12.883Z,57.90
2023-04-13T20:09:39.859Z,58.20
2023-04-13T20:12:07.561Z,58.30
2023-04-13T20:14:34.746Z,58.60
2023-04-13T20:17:03.137Z,58.80
2023-04-13T20:19:30.433Z,59.10
2023-04-13T20:21:57.728Z,59.40
2023-04-13T20:24:24.723Z,59.50
2023-04-13T20:26:51.704Z,59.80
2023-04-13T20:29:21.794Z,60.00
2023-04-13T20:31:49.144Z,60.50
2023-04-13T20:34:16.437Z,60.80
2023-04-13T20:36:43.527Z,61.20
2023-04-13T20:39:11.004Z,61.60
2023-04-13T20:41:38.912Z,61.90
2023-04-13T20:44:09.911Z,62.30
2023-04-13T20:46:41.957Z,62.50
2023-04-13T20:49:11.849Z,62.90
2023-04-13T20:51:39.667Z,63.20
2023-04-13T20:54:06.801Z,63.60
2023-04-13T20:56:33.719Z,63.90
2023-04-13T20:59:01.875Z,64.10
2023-04-13T21:01:30.187Z,64.30
2023-04-13T21:03:57.480Z,64.50
2023-04-13T21:06:24.571Z,64.80
2023-04-13T21:08:52.867Z,65.00
2023-04-13T21:11:20.005Z,65.10
2023-04-13T21:13:47.216Z,65.30
2023-04-13T21:16:14.317Z,65.50
2023-04-13T21:18:41.921Z,65.80
2023-04-13T21:21:09.216Z,65.80
2023-04-13T21:23:37.279Z,66.00
2023-04-13T21:26:04.973Z,66.40
2023-04-13T21:28:32.150Z,66.50
2023-04-13T21:30:59.293Z,66.80
2023-04-13T21:33:26.350Z,66.80
2023-04-13T21:35:53.296Z,67.00
2023-04-13T21:38:20.409Z,67.20
2023-04-13T21:40:47.482Z,67.50
2023-04-13T21:43:14.868Z,67.70
2023-04-13T21:45:41.972Z,67.80
2023-04-13T21:48:08.919Z,68.00
2023-04-13T21:50:35.858Z,68.30
2023-04-13T21:53:02.869Z,68.60
2023-04-13T21:55:29.966Z,68.80
2023-04-13T21:57:57.070Z,69.00
2023-04-13T22:00:24.273Z,69.30
2023-04-13T22:02:52.277Z,69.40
2023-04-13T22:05:19.471Z,69.60
2023-04-13T22:07:46.588Z,69.90
2023-04-13T22:10:14.205Z,70.00
2023-04-13T22:12:41.394Z,70.20
2023-04-13T22:15:08.877Z,70.50
2023-04-13T22:17:36.780Z,70.80
2023-04-13T22:20:04.572Z,71.00
2023-04-13T22:22:31.609Z,71.20
2023-04-13T22:24:58.707Z,71.50
2023-04-13T22:27:26.561Z,71.70
2023-04-13T22:29:56.631Z,72.00
2023-04-13T22:32:23.963Z,72.30
2023-04-13T22:34:50.920Z,72.40
2023-04-13T22:37:18.086Z,72.60
2023-04-13T22:39:45.139Z,72.70
2023-04-13T22:42:12.057Z,72.90
2023-04-13T22:44:39.176Z,73.00
2023-04-13T22:47:06.518Z,73.10
2023-04-13T22:49:33.580Z,73.40
2023-04-13T22:52:00.581Z,73.50
2023-04-13T22:54:27.639Z,73.60
2023-04-13T22:56:54.568Z,73.70
2023-04-13T22:59:21.559Z,73.80
2023-04-13T23:01:48.929Z,73.90
2023-04-13T23:04:16.577Z,74.00
2023-04-13T23:06:43.884Z,74.00
2023-04-13T23:09:11.001Z,74.10
2023-04-13T23:11:38.341Z,74.10
2023-04-13T23:14:06.586Z,74.10
2023-04-13T23:16:34.502Z,74.20
2023-04-13T23:19:01.877Z,74.30
2023-04-13T23:21:29.575Z,74.40
2023-04-13T23:23:56.637Z,74.40
2023-04-13T23:26:23.849Z,74.50
2023-04-13T23:28:50.820Z,74.60
2023-04-13T23:31:17.931Z,74.80
2023-04-13T23:33:44.965Z,74.80
2023-04-13T23:36:12.011Z,74.90
2023-04-13T23:38:39.063Z,75.00
2023-04-13T23:41:06.196Z,75.10
2023-04-13T23:43:33.096Z,75.10
2023-04-13T23:46:00.444Z,75.80
2023-04-13T23:48:27.629Z,75.20
2023-04-13T23:50:54.946Z,75.10
2023-04-13T23:53:21.928Z,75.00
2023-04-13T23:55:48.950Z,75.00
2023-04-13T23:58:18.881Z,75.00
